Stations météo

réclame
Mon MeteoGroup
Glen Ogle, Grande-Bretagne (3148): Température de l'air & dewpoint: 29.07.2020 18:00:00 - 04.08.2020 18:00:00 (BST)Glen Ogle, Grande-Bretagne (3148): Vitesse du vent & gusts: 29.07.2020 18:00:00 - 04.08.2020 18:00:00 (BST)Glen Ogle, Grande-Bretagne (3148): Direction du vent: 29.07.2020 18:00:00 - 04.08.2020 18:00:00 (BST)
Date & Time tt [°C] td [°C] ff [km/h] ff [knt] fx [km/h] fx [knt] dd
04.08.2020 18:00:00 13,1 12,9 52 28 76 41 S
04.08.2020 17:00:00 13,0 12,8 48 26 81 44 S
04.08.2020 16:00:00 12,6 12,6 42 23 68 37 S
04.08.2020 15:00:00 11,8 11,7 46 25 67 36 S
04.08.2020 14:00:00 11,0 10,8 42 23 61 33 S
04.08.2020 13:00:00 10,0 9,9 42 23 65 35 S
04.08.2020 12:00:00 9,3 9,2 54 29 72 39 S
04.08.2020 11:00:00 8,6 8,6 55 30 70 38 S
04.08.2020 10:00:00 8,3 8,3 54 29 80 43 S
04.08.2020 09:00:00 8,2 8,1 52 28 68 37 S
04.08.2020 08:00:00 8,0 7,8 48 26 70 38 S
04.08.2020 07:00:00 8,0 7,9 44 24 65 35 S
04.08.2020 06:00:00 8,0 7,4 37 20 54 29 S
04.08.2020 05:00:00 7,8 7,0 22 12 - - S
04.08.2020 04:00:00 8,0 7,0 26 14 - - S
04.08.2020 03:00:00 8,1 6,5 21 11 - - S
04.08.2020 02:00:00 8,0 6,4 18 10 - - SSW
04.08.2020 01:00:00 7,9 6,0 9 5 - - SW
04.08.2020 00:00:00 7,6 6,6 8 4 - - WSW
03.08.2020 23:00:00 8,1 6,0 22 12 - - W
03.08.2020 22:00:00 8,2 6,5 18 10 - - W
03.08.2020 21:00:00 8,6 6,2 22 12 - - W
03.08.2020 20:00:00 8,8 5,5 24 13 - - W
03.08.2020 19:00:00 9,4 5,6 29 16 - - W
03.08.2020 18:00:00 8,1 7,0 28 15 46 25 W
03.08.2020 17:00:00 9,7 5,5 39 21 48 26 W
03.08.2020 16:00:00 10,6 4,3 29 16 - - W
03.08.2020 15:00:00 9,7 5,4 26 14 - - W
03.08.2020 14:00:00 9,9 4,6 24 13 - - WSW
03.08.2020 13:00:00 8,3 4,4 21 11 - - W
03.08.2020 12:00:00 9,2 3,7 28 15 - - W
03.08.2020 11:00:00 8,3 2,8 18 10 - - W
03.08.2020 10:00:00 7,1 4,4 24 13 - - W
03.08.2020 09:00:00 6,8 5,2 16 9 - - W
03.08.2020 08:00:00 6,5 5,0 16 9 - - W
03.08.2020 07:00:00 6,5 5,2 18 10 - - W
03.08.2020 06:00:00 6,1 6,1 18 10 - - W
03.08.2020 05:00:00 6,1 6,1 21 11 - - W
03.08.2020 04:00:00 6,0 5,9 13 7 - - W
03.08.2020 03:00:00 6,1 6,0 16 9 - - W
03.08.2020 02:00:00 6,3 6,2 21 11 - - W
03.08.2020 01:00:00 6,6 6,3 16 9 - - W
03.08.2020 00:00:00 7,0 6,4 18 10 - - W
02.08.2020 23:00:00 7,3 6,4 22 12 - - W
02.08.2020 22:00:00 7,9 5,9 13 7 - - WSW
02.08.2020 21:00:00 8,1 6,2 18 10 - - W
02.08.2020 20:00:00 8,4 4,8 22 12 - - W
02.08.2020 19:00:00 9,3 5,4 22 12 - - W
02.08.2020 18:00:00 9,3 5,3 26 14 - - W
02.08.2020 17:00:00 10,0 4,8 34 18 - - W
02.08.2020 16:00:00 11,3 3,2 26 14 54 29 WSW
02.08.2020 15:00:00 11,0 3,8 29 16 - - W
02.08.2020 14:00:00 10,6 3,9 34 18 - - W
02.08.2020 13:00:00 9,0 6,1 28 15 - - W
02.08.2020 12:00:00 9,8 5,8 24 13 - - W
02.08.2020 11:00:00 8,6 5,4 26 14 - - W
02.08.2020 10:00:00 8,3 8,0 18 10 - - W
02.08.2020 09:00:00 7,9 7,9 22 12 - - W
02.08.2020 08:00:00 8,1 8,1 16 9 - - W
02.08.2020 07:00:00 8,0 7,9 18 10 - - W
02.08.2020 06:00:00 7,8 7,8 16 9 - - W
02.08.2020 05:00:00 7,7 7,7 9 5 - - W
02.08.2020 04:00:00 7,8 7,7 16 9 - - W
02.08.2020 03:00:00 7,9 7,6 21 11 - - W
02.08.2020 02:00:00 8,5 7,2 11 6 - - W
02.08.2020 01:00:00 8,5 7,1 5 3 - - W
02.08.2020 00:00:00 8,7 6,4 16 9 - - W
01.08.2020 23:00:00 8,9 6,4 21 11 - - W
01.08.2020 22:00:00 9,0 6,9 18 10 - - W
01.08.2020 21:00:00 9,5 7,1 22 12 - - W
01.08.2020 20:00:00 10,1 7,3 22 12 - - W
01.08.2020 19:00:00 10,2 6,8 24 13 - - W
01.08.2020 18:00:00 10,6 7,2 22 12 - - W
01.08.2020 17:00:00 10,0 8,0 15 8 - - WNW
01.08.2020 16:00:00 10,4 6,9 18 10 - - W
01.08.2020 15:00:00 11,7 5,0 18 10 - - W
01.08.2020 14:00:00 10,8 6,3 22 12 - - W
01.08.2020 13:00:00 10,7 6,8 24 13 - - W
01.08.2020 12:00:00 11,0 6,1 22 12 - - W
01.08.2020 11:00:00 10,0 6,7 28 15 - - W
01.08.2020 10:00:00 9,5 7,8 24 13 - - W
01.08.2020 09:00:00 9,6 6,7 24 13 - - W
01.08.2020 08:00:00 9,1 6,2 18 10 - - WNW
01.08.2020 07:00:00 8,8 8,8 15 8 - - W
01.08.2020 06:00:00 8,9 8,9 28 15 - - WNW
01.08.2020 05:00:00 9,2 9,2 29 16 46 25 W
01.08.2020 04:00:00 11,3 11,3 22 12 - - W
01.08.2020 03:00:00 11,4 11,4 22 12 - - W
01.08.2020 02:00:00 11,4 11,4 16 9 - - W
01.08.2020 01:00:00 11,8 11,8 21 11 - - W
01.08.2020 00:00:00 12,8 12,7 28 15 - - W
31.07.2020 23:00:00 14,0 13,7 15 8 - - S
31.07.2020 22:00:00 14,0 13,8 11 6 50 27 SE
31.07.2020 21:00:00 13,8 13,3 28 15 46 25 S
31.07.2020 20:00:00 14,7 13,4 15 8 59 32 SSW
31.07.2020 19:00:00 18,3 13,4 41 22 50 27 S
31.07.2020 18:00:00 19,5 14,2 29 16 - - SSE
31.07.2020 17:00:00 19,3 14,8 24 13 - - SSE
31.07.2020 16:00:00 18,8 14,2 26 14 - - SSE
31.07.2020 15:00:00 18,2 13,1 28 15 48 26 SE
31.07.2020 14:00:00 16,3 13,3 35 19 48 26 ESE
31.07.2020 13:00:00 15,7 11,3 28 15 - - ESE
31.07.2020 12:00:00 16,7 10,4 15 8 - - SE
31.07.2020 11:00:00 15,7 9,3 22 12 - - SSE
31.07.2020 10:00:00 14,0 10,9 16 9 - - SSE
31.07.2020 09:00:00 14,2 10,1 15 8 - - SSE
31.07.2020 08:00:00 12,5 8,5 8 4 - - S
31.07.2020 07:00:00 11,7 10,0 9 5 - - SSE
31.07.2020 06:00:00 11,0 11,0 8 4 - - SSE
31.07.2020 05:00:00 11,2 11,2 29 16 - - ESE
31.07.2020 04:00:00 10,9 10,9 31 17 - - SE
31.07.2020 03:00:00 11,7 10,7 24 13 - - SE
31.07.2020 02:00:00 10,8 10,6 8 4 - - SE
31.07.2020 01:00:00 11,1 10,6 15 8 - - SSE
31.07.2020 00:00:00 11,3 10,7 26 14 - - SSE
30.07.2020 23:00:00 11,0 10,8 21 11 - - SSE
30.07.2020 22:00:00 11,4 10,7 18 10 - - SSE
30.07.2020 21:00:00 11,5 10,2 28 15 - - SSE
30.07.2020 20:00:00 11,6 11,6 21 11 - - SSE
30.07.2020 19:00:00 11,6 11,6 21 11 - - SE
30.07.2020 18:00:00 11,5 11,4 15 8 - - SSE
30.07.2020 17:00:00 10,9 10,8 11 6 - - SSE
30.07.2020 16:00:00 10,4 10,2 5 3 - - S
30.07.2020 15:00:00 9,8 9,7 18 10 - - SE
30.07.2020 14:00:00 9,1 8,9 22 12 - - SE
30.07.2020 13:00:00 8,6 8,5 24 13 - - SE
30.07.2020 12:00:00 7,9 7,9 29 16 - - ESE
30.07.2020 11:00:00 7,4 7,4 34 18 - - ESE
30.07.2020 10:00:00 6,8 6,8 35 19 - - ESE
30.07.2020 09:00:00 6,8 6,6 29 16 - - ESE
30.07.2020 08:00:00 7,1 6,5 22 12 - - ESE
30.07.2020 07:00:00 7,4 6,2 15 8 - - ESE
30.07.2020 06:00:00 8,2 5,7 9 5 - - SE
30.07.2020 05:00:00 8,2 5,5 15 8 - - SE
30.07.2020 04:00:00 8,0 5,7 9 5 - - SSE
30.07.2020 03:00:00 7,7 5,6 13 7 - - SSE
30.07.2020 02:00:00 8,0 6,0 15 8 - - SSE
30.07.2020 01:00:00 7,5 5,8 8 4 - - SE
30.07.2020 00:00:00 8,4 5,7 5 3 - - SE
29.07.2020 23:00:00 8,5 6,2 4 2 - - N
29.07.2020 22:00:00 8,6 6,1 5 3 - - NW
29.07.2020 21:00:00 8,9 6,1 9 5 - - WNW
29.07.2020 20:00:00 9,7 5,4 13 7 - - W
29.07.2020 19:00:00 10,4 4,9 16 9 - - W
29.07.2020 18:00:00 10,6 4,3 24 13 - - W

tt = Température de l'air
td = dewpoint
ff = Vitesse du vent
fx = gusts
dd = Direction du vent

stations d'obs. à proximité